Etusivu
METAR-TAF:

METAR-TAF

Lentoasemat :

Stevens Point Municipal Airport

Stevens Point, Wisconsin, Yhdysvallat

Leveyspiiri: 44-32-42N, Pituuspiiri: 089-31-49W, korkeus merenpinnasta: 338 m

Tämänhetkinen sää

Tämä raportti tehtiin 26 minuuttia sitten, kello 21.55 UTC
Tuuli 7 kn kaakosta
Lämpötila 2°C
Kosteus 69%
Ilmanpaine 1023 hPa
Näkyvyys: 16.1 km
selkeää

METAR: KSTE 162155Z AUTO 14007KT 10SM CLR 02/M03 A3022 RMK AO2 T00181027

Aika: 16:21 (22:21 UTC)


TAF: puuttuu

Säähavainnot ja -ennusteet yli 4000 lentoasemalta (METAR- ja TAF-raportit).

Käytössä olevat sääasemat on merkitty karttaan keltaisilla ja punaisilla pisteillä.

Aseta hiiri pisteen päälle nähdäksesi sääaseman nimen.

Klikkaa sitten nähdäksesi säähavainnot ja -ennusteet.

Kartan vaihtaminen: klikkaa mustalla rastilla varustettuja vihreitä pisteitä, niin voit zoomata sisään; viivalla varustettua vihreää pistettä, niin voit zoomata ulos tai vihreitä nuolia, niin pääset viereisille kartoille.


METAR-TAF: